sensor_id;sensor_type;location;lat;lon;timestamp;temperature;humidity
8888;DHT22;4480;52.370;9.748;2024-01-10T00:02:26;-7.00;99.90
8888;DHT22;4480;52.370;9.748;2024-01-10T00:04:53;-7.00;99.90
8888;DHT22;4480;52.370;9.748;2024-01-10T00:07:21;-7.10;99.90
8888;DHT22;4480;52.370;9.748;2024-01-10T00:09:47;-7.10;99.90
8888;DHT22;4480;52.370;9.748;2024-01-10T00:12:14;-7.10;99.90
8888;DHT22;4480;52.370;9.748;2024-01-10T00:14:41;-7.10;99.90
8888;DHT22;4480;52.370;9.748;2024-01-10T00:17:08;-7.10;99.90
8888;DHT22;4480;52.370;9.748;2024-01-10T00:19:34;-7.20;99.90
8888;DHT22;4480;52.370;9.748;2024-01-10T00:22:01;-7.10;99.90
8888;DHT22;4480;52.370;9.748;2024-01-10T00:24:29;-7.20;99.90
8888;DHT22;4480;52.370;9.748;2024-01-10T00:26:56;-7.20;99.90
8888;DHT22;4480;52.370;9.748;2024-01-10T00:29:23;-7.20;99.90
8888;DHT22;4480;52.370;9.748;2024-01-10T00:31:50;-7.20;99.90
8888;DHT22;4480;52.370;9.748;2024-01-10T00:34:18;-7.20;99.90
8888;DHT22;4480;52.370;9.748;2024-01-10T00:36:45;-7.20;99.90
8888;DHT22;4480;52.370;9.748;2024-01-10T00:39:11;-7.20;99.90
8888;DHT22;4480;52.370;9.748;2024-01-10T00:41:40;-7.20;99.90
8888;DHT22;4480;52.370;9.748;2024-01-10T00:44:06;-7.20;99.90
8888;DHT22;4480;52.370;9.748;2024-01-10T00:46:33;-7.20;99.90
8888;DHT22;4480;52.370;9.748;2024-01-10T00:49:00;-7.20;99.90
8888;DHT22;4480;52.370;9.748;2024-01-10T00:51:27;-7.30;99.90
8888;DHT22;4480;52.370;9.748;2024-01-10T00:53:53;-7.30;99.90
8888;DHT22;4480;52.370;9.748;2024-01-10T00:56:20;-7.30;99.90
8888;DHT22;4480;52.370;9.748;2024-01-10T00:58:48;-7.30;99.90
8888;DHT22;4480;52.370;9.748;2024-01-10T01:01:15;-7.30;99.90
8888;DHT22;4480;52.370;9.748;2024-01-10T01:03:42;-7.30;99.90
8888;DHT22;4480;52.370;9.748;2024-01-10T01:06:09;-7.30;99.90
8888;DHT22;4480;52.370;9.748;2024-01-10T01:08:36;-7.30;99.90
8888;DHT22;4480;52.370;9.748;2024-01-10T01:11:03;-7.30;99.90
8888;DHT22;4480;52.370;9.748;2024-01-10T01:13:29;-7.30;99.90
8888;DHT22;4480;52.370;9.748;2024-01-10T01:15:57;-7.30;99.90
8888;DHT22;4480;52.370;9.748;2024-01-10T01:18:24;-7.40;99.90
8888;DHT22;4480;52.370;9.748;2024-01-10T01:20:51;-7.40;99.90
8888;DHT22;4480;52.370;9.748;2024-01-10T01:23:18;-7.40;99.90
8888;DHT22;4480;52.370;9.748;2024-01-10T01:25:45;-7.40;99.90
8888;DHT22;4480;52.370;9.748;2024-01-10T01:28:11;-7.40;99.90
8888;DHT22;4480;52.370;9.748;2024-01-10T01:30:38;-7.40;99.90
8888;DHT22;4480;52.370;9.748;2024-01-10T01:33:07;-7.40;99.90
8888;DHT22;4480;52.370;9.748;2024-01-10T01:35:33;-7.40;99.90
8888;DHT22;4480;52.370;9.748;2024-01-10T01:38:00;-7.40;99.90
8888;DHT22;4480;52.370;9.748;2024-01-10T01:40:27;-7.50;99.90
8888;DHT22;4480;52.370;9.748;2024-01-10T01:42:54;-7.50;99.90
8888;DHT22;4480;52.370;9.748;2024-01-10T01:45:20;-7.50;99.90
8888;DHT22;4480;52.370;9.748;2024-01-10T01:47:47;-7.50;99.90
8888;DHT22;4480;52.370;9.748;2024-01-10T01:50:16;-7.50;99.90
8888;DHT22;4480;52.370;9.748;2024-01-10T01:52:43;-7.60;99.90
8888;DHT22;4480;52.370;9.748;2024-01-10T01:55:10;-7.60;99.90
8888;DHT22;4480;52.370;9.748;2024-01-10T01:57:37;-7.60;99.90
8888;DHT22;4480;52.370;9.748;2024-01-10T02:00:06;-7.50;99.90
8888;DHT22;4480;52.370;9.748;2024-01-10T02:02:34;-7.50;99.90
8888;DHT22;4480;52.370;9.748;2024-01-10T02:05:02;-7.50;99.90
8888;DHT22;4480;52.370;9.748;2024-01-10T02:07:30;-7.50;99.90
8888;DHT22;4480;52.370;9.748;2024-01-10T02:09:57;-7.50;99.90
8888;DHT22;4480;52.370;9.748;2024-01-10T02:12:24;-7.50;99.90
8888;DHT22;4480;52.370;9.748;2024-01-10T02:14:51;-7.50;99.90
8888;DHT22;4480;52.370;9.748;2024-01-10T02:17:18;-7.60;99.90
8888;DHT22;4480;52.370;9.748;2024-01-10T02:19:45;-7.60;99.90
8888;DHT22;4480;52.370;9.748;2024-01-10T02:22:12;-7.60;99.90
8888;DHT22;4480;52.370;9.748;2024-01-10T02:24:40;-7.60;99.90
8888;DHT22;4480;52.370;9.748;2024-01-10T02:27:08;-7.60;99.90
8888;DHT22;4480;52.370;9.748;2024-01-10T02:29:35;-7.60;99.90
8888;DHT22;4480;52.370;9.748;2024-01-10T02:32:02;-7.60;99.90
8888;DHT22;4480;52.370;9.748;2024-01-10T02:34:29;-7.60;99.90
8888;DHT22;4480;52.370;9.748;2024-01-10T02:36:56;-7.60;99.90
8888;DHT22;4480;52.370;9.748;2024-01-10T02:39:23;-7.60;99.90
8888;DHT22;4480;52.370;9.748;2024-01-10T02:41:50;-7.60;99.90
8888;DHT22;4480;52.370;9.748;2024-01-10T02:44:18;-7.60;99.90
8888;DHT22;4480;52.370;9.748;2024-01-10T02:46:45;-7.70;99.90
8888;DHT22;4480;52.370;9.748;2024-01-10T02:49:12;-7.60;99.90
8888;DHT22;4480;52.370;9.748;2024-01-10T02:51:39;-7.70;99.90
8888;DHT22;4480;52.370;9.748;2024-01-10T02:54:06;-7.70;99.90
8888;DHT22;4480;52.370;9.748;2024-01-10T02:56:32;-7.70;99.90
8888;DHT22;4480;52.370;9.748;2024-01-10T02:58:59;-7.70;99.90
8888;DHT22;4480;52.370;9.748;2024-01-10T03:01:27;-7.70;99.90
8888;DHT22;4480;52.370;9.748;2024-01-10T03:03:54;-7.70;99.90
8888;DHT22;4480;52.370;9.748;2024-01-10T03:06:21;-7.80;99.90
8888;DHT22;4480;52.370;9.748;2024-01-10T03:08:47;-7.80;99.90
8888;DHT22;4480;52.370;9.748;2024-01-10T03:11:15;-7.80;99.90
8888;DHT22;4480;52.370;9.748;2024-01-10T03:13:43;-7.80;99.90
8888;DHT22;4480;52.370;9.748;2024-01-10T03:16:12;-7.80;99.90
8888;DHT22;4480;52.370;9.748;2024-01-10T03:18:40;-7.80;99.90
8888;DHT22;4480;52.370;9.748;2024-01-10T03:21:07;-7.80;99.90
8888;DHT22;4480;52.370;9.748;2024-01-10T03:23:34;-7.80;99.90
8888;DHT22;4480;52.370;9.748;2024-01-10T03:26:00;-7.90;99.90
8888;DHT22;4480;52.370;9.748;2024-01-10T03:28:27;-7.90;99.90
8888;DHT22;4480;52.370;9.748;2024-01-10T03:30:54;-7.90;99.90
8888;DHT22;4480;52.370;9.748;2024-01-10T03:33:21;-7.90;99.90
8888;DHT22;4480;52.370;9.748;2024-01-10T03:35:49;-7.90;99.90
8888;DHT22;4480;52.370;9.748;2024-01-10T03:38:16;-8.00;99.90
8888;DHT22;4480;52.370;9.748;2024-01-10T03:40:42;-8.00;99.90
8888;DHT22;4480;52.370;9.748;2024-01-10T03:43:09;-8.10;99.90
8888;DHT22;4480;52.370;9.748;2024-01-10T03:45:37;-8.10;99.90
8888;DHT22;4480;52.370;9.748;2024-01-10T03:48:05;-8.10;99.90
8888;DHT22;4480;52.370;9.748;2024-01-10T03:50:32;-8.10;99.90
8888;DHT22;4480;52.370;9.748;2024-01-10T03:53:00;-8.10;99.90
8888;DHT22;4480;52.370;9.748;2024-01-10T03:55:27;-8.10;99.90
8888;DHT22;4480;52.370;9.748;2024-01-10T03:57:54;-8.20;99.90
8888;DHT22;4480;52.370;9.748;2024-01-10T04:00:21;-8.20;99.90
8888;DHT22;4480;52.370;9.748;2024-01-10T04:02:47;-8.20;99.90
8888;DHT22;4480;52.370;9.748;2024-01-10T04:05:14;-8.10;99.90
8888;DHT22;4480;52.370;9.748;2024-01-10T04:07:41;-8.10;99.90
8888;DHT22;4480;52.370;9.748;2024-01-10T04:12:57;-8.10;99.90
8888;DHT22;4480;52.370;9.748;2024-01-10T04:15:24;-8.10;99.90
8888;DHT22;4480;52.370;9.748;2024-01-10T04:17:51;-8.10;99.90
8888;DHT22;4480;52.370;9.748;2024-01-10T04:20:18;-8.10;99.90
8888;DHT22;4480;52.370;9.748;2024-01-10T04:22:44;-8.10;99.90
8888;DHT22;4480;52.370;9.748;2024-01-10T04:25:11;-8.10;99.90
8888;DHT22;4480;52.370;9.748;2024-01-10T04:27:38;-8.10;99.90
8888;DHT22;4480;52.370;9.748;2024-01-10T04:30:07;-8.10;99.90
8888;DHT22;4480;52.370;9.748;2024-01-10T04:32:34;-8.10;99.90
8888;DHT22;4480;52.370;9.748;2024-01-10T04:35:01;-8.10;99.90
8888;DHT22;4480;52.370;9.748;2024-01-10T04:37:28;-8.10;99.90
8888;DHT22;4480;52.370;9.748;2024-01-10T04:39:55;-8.10;99.90
8888;DHT22;4480;52.370;9.748;2024-01-10T04:42:21;-8.10;99.90
8888;DHT22;4480;52.370;9.748;2024-01-10T04:44:48;-8.10;99.90
8888;DHT22;4480;52.370;9.748;2024-01-10T04:47:17;-8.00;99.90
8888;DHT22;4480;52.370;9.748;2024-01-10T04:49:43;-8.00;99.90
8888;DHT22;4480;52.370;9.748;2024-01-10T04:52:10;-8.00;99.90
8888;DHT22;4480;52.370;9.748;2024-01-10T04:54:38;-8.00;99.90
8888;DHT22;4480;52.370;9.748;2024-01-10T04:57:05;-8.00;99.90
8888;DHT22;4480;52.370;9.748;2024-01-10T04:59:32;-8.00;99.90
8888;DHT22;4480;52.370;9.748;2024-01-10T05:01:59;-8.00;99.90
8888;DHT22;4480;52.370;9.748;2024-01-10T05:04:27;-8.00;99.90
8888;DHT22;4480;52.370;9.748;2024-01-10T05:06:54;-8.00;99.90
8888;DHT22;4480;52.370;9.748;2024-01-10T05:09:21;-8.00;99.90
8888;DHT22;4480;52.370;9.748;2024-01-10T05:11:48;-8.00;99.90
8888;DHT22;4480;52.370;9.748;2024-01-10T05:14:16;-8.00;99.90
8888;DHT22;4480;52.370;9.748;2024-01-10T05:16:44;-8.00;99.90
8888;DHT22;4480;52.370;9.748;2024-01-10T05:19:13;-8.00;99.90
8888;DHT22;4480;52.370;9.748;2024-01-10T05:21:41;-8.00;99.90
8888;DHT22;4480;52.370;9.748;2024-01-10T05:24:08;-8.00;99.90
8888;DHT22;4480;52.370;9.748;2024-01-10T05:26:35;-8.00;99.90
8888;DHT22;4480;52.370;9.748;2024-01-10T05:29:02;-8.00;99.90
8888;DHT22;4480;52.370;9.748;2024-01-10T05:31:28;-8.00;99.90
8888;DHT22;4480;52.370;9.748;2024-01-10T05:33:55;-8.00;99.90
8888;DHT22;4480;52.370;9.748;2024-01-10T05:36:22;-8.00;99.90
8888;DHT22;4480;52.370;9.748;2024-01-10T05:38:50;-8.00;99.90
8888;DHT22;4480;52.370;9.748;2024-01-10T05:41:17;-8.00;99.90
8888;DHT22;4480;52.370;9.748;2024-01-10T05:43:44;-8.10;99.90
8888;DHT22;4480;52.370;9.748;2024-01-10T05:46:11;-8.10;99.90
8888;DHT22;4480;52.370;9.748;2024-01-10T05:48:38;-8.10;99.90
8888;DHT22;4480;52.370;9.748;2024-01-10T05:51:05;-8.10;99.90
8888;DHT22;4480;52.370;9.748;2024-01-10T05:53:31;-8.00;99.90
8888;DHT22;4480;52.370;9.748;2024-01-10T05:55:59;-8.00;99.90
8888;DHT22;4480;52.370;9.748;2024-01-10T05:58:26;-8.10;99.90
8888;DHT22;4480;52.370;9.748;2024-01-10T06:00:53;-8.10;99.90
8888;DHT22;4480;52.370;9.748;2024-01-10T06:03:20;-8.10;99.90
8888;DHT22;4480;52.370;9.748;2024-01-10T06:05:47;-8.10;99.90
8888;DHT22;4480;52.370;9.748;2024-01-10T06:08:14;-8.10;99.90
8888;DHT22;4480;52.370;9.748;2024-01-10T06:10:41;-8.10;99.90
8888;DHT22;4480;52.370;9.748;2024-01-10T06:13:09;-8.10;99.90
8888;DHT22;4480;52.370;9.748;2024-01-10T06:15:36;-8.10;99.90
8888;DHT22;4480;52.370;9.748;2024-01-10T06:18:03;-8.10;99.90
8888;DHT22;4480;52.370;9.748;2024-01-10T06:20:30;-8.10;99.90
8888;DHT22;4480;52.370;9.748;2024-01-10T06:22:58;-8.20;99.90
8888;DHT22;4480;52.370;9.748;2024-01-10T06:25:25;-8.20;99.90
8888;DHT22;4480;52.370;9.748;2024-01-10T06:27:53;-8.20;99.90
8888;DHT22;4480;52.370;9.748;2024-01-10T06:30:21;-8.20;99.90
8888;DHT22;4480;52.370;9.748;2024-01-10T06:32:48;-8.20;99.90
8888;DHT22;4480;52.370;9.748;2024-01-10T06:35:14;-8.20;99.90
8888;DHT22;4480;52.370;9.748;2024-01-10T06:37:41;-8.30;99.90
8888;DHT22;4480;52.370;9.748;2024-01-10T06:40:10;-8.20;99.90
8888;DHT22;4480;52.370;9.748;2024-01-10T06:42:37;-8.30;99.90
8888;DHT22;4480;52.370;9.748;2024-01-10T06:45:05;-8.20;99.90
8888;DHT22;4480;52.370;9.748;2024-01-10T06:47:34;-8.30;99.90
8888;DHT22;4480;52.370;9.748;2024-01-10T06:50:01;-8.30;99.90
8888;DHT22;4480;52.370;9.748;2024-01-10T06:52:30;-8.30;99.90
8888;DHT22;4480;52.370;9.748;2024-01-10T06:54:56;-8.30;99.90
8888;DHT22;4480;52.370;9.748;2024-01-10T06:57:23;-8.30;99.90
8888;DHT22;4480;52.370;9.748;2024-01-10T06:59:50;-8.30;99.90
8888;DHT22;4480;52.370;9.748;2024-01-10T07:02:17;-8.40;99.90
8888;DHT22;4480;52.370;9.748;2024-01-10T07:04:45;-8.40;99.90
8888;DHT22;4480;52.370;9.748;2024-01-10T07:07:13;-8.40;99.90
8888;DHT22;4480;52.370;9.748;2024-01-10T07:09:42;-8.40;99.90
8888;DHT22;4480;52.370;9.748;2024-01-10T07:12:09;-8.40;99.90
8888;DHT22;4480;52.370;9.748;2024-01-10T07:14:36;-8.50;99.90
8888;DHT22;4480;52.370;9.748;2024-01-10T07:17:03;-8.50;99.90
8888;DHT22;4480;52.370;9.748;2024-01-10T07:19:30;-8.50;99.90
8888;DHT22;4480;52.370;9.748;2024-01-10T07:21:58;-8.40;99.90
8888;DHT22;4480;52.370;9.748;2024-01-10T07:24:26;-8.50;99.90
8888;DHT22;4480;52.370;9.748;2024-01-10T07:26:53;-8.40;99.90
8888;DHT22;4480;52.370;9.748;2024-01-10T07:29:19;-8.50;99.90
8888;DHT22;4480;52.370;9.748;2024-01-10T07:31:46;-8.40;99.90
8888;DHT22;4480;52.370;9.748;2024-01-10T07:34:13;-8.40;99.90
8888;DHT22;4480;52.370;9.748;2024-01-10T07:36:43;-8.40;99.90
8888;DHT22;4480;52.370;9.748;2024-01-10T07:39:11;-8.50;99.90
8888;DHT22;4480;52.370;9.748;2024-01-10T07:41:41;-8.40;99.90
8888;DHT22;4480;52.370;9.748;2024-01-10T07:44:08;-8.40;99.90
8888;DHT22;4480;52.370;9.748;2024-01-10T07:46:35;-8.40;99.90
8888;DHT22;4480;52.370;9.748;2024-01-10T07:49:03;-8.40;99.90
8888;DHT22;4480;52.370;9.748;2024-01-10T07:51:30;-8.40;99.90
8888;DHT22;4480;52.370;9.748;2024-01-10T07:53:58;-8.40;99.90
8888;DHT22;4480;52.370;9.748;2024-01-10T07:56:26;-8.40;99.90
8888;DHT22;4480;52.370;9.748;2024-01-10T07:58:53;-8.40;99.90
8888;DHT22;4480;52.370;9.748;2024-01-10T08:01:20;-8.30;99.90
8888;DHT22;4480;52.370;9.748;2024-01-10T08:03:47;-8.30;99.90
8888;DHT22;4480;52.370;9.748;2024-01-10T08:06:14;-8.30;99.90
8888;DHT22;4480;52.370;9.748;2024-01-10T08:08:41;-8.30;99.90
8888;DHT22;4480;52.370;9.748;2024-01-10T08:11:07;-8.30;99.90
8888;DHT22;4480;52.370;9.748;2024-01-10T08:13:36;-8.20;99.90
8888;DHT22;4480;52.370;9.748;2024-01-10T08:16:03;-8.20;99.90
8888;DHT22;4480;52.370;9.748;2024-01-10T08:18:30;-8.20;99.90
8888;DHT22;4480;52.370;9.748;2024-01-10T08:20:57;-8.10;99.90
8888;DHT22;4480;52.370;9.748;2024-01-10T08:23:23;-8.10;99.90
8888;DHT22;4480;52.370;9.748;2024-01-10T08:25:52;-8.10;99.90
8888;DHT22;4480;52.370;9.748;2024-01-10T08:28:18;-8.10;99.90
8888;DHT22;4480;52.370;9.748;2024-01-10T08:30:47;-8.10;99.90
8888;DHT22;4480;52.370;9.748;2024-01-10T08:33:13;-8.00;99.90
8888;DHT22;4480;52.370;9.748;2024-01-10T08:35:40;-8.00;99.90
8888;DHT22;4480;52.370;9.748;2024-01-10T08:38:08;-7.90;99.90
8888;DHT22;4480;52.370;9.748;2024-01-10T08:40:35;-7.90;99.90
8888;DHT22;4480;52.370;9.748;2024-01-10T08:43:02;-7.90;99.90
8888;DHT22;4480;52.370;9.748;2024-01-10T08:45:28;-7.80;99.90
8888;DHT22;4480;52.370;9.748;2024-01-10T08:47:56;-7.70;99.90
8888;DHT22;4480;52.370;9.748;2024-01-10T08:50:24;-7.60;99.90
8888;DHT22;4480;52.370;9.748;2024-01-10T08:52:51;-7.60;99.90
8888;DHT22;4480;52.370;9.748;2024-01-10T08:55:18;-7.50;99.90
8888;DHT22;4480;52.370;9.748;2024-01-10T08:57:45;-7.40;99.90
8888;DHT22;4480;52.370;9.748;2024-01-10T09:00:15;-7.50;99.90
8888;DHT22;4480;52.370;9.748;2024-01-10T09:02:42;-7.40;99.90
8888;DHT22;4480;52.370;9.748;2024-01-10T09:05:10;-7.40;99.90
8888;DHT22;4480;52.370;9.748;2024-01-10T09:07:37;-7.40;99.90
8888;DHT22;4480;52.370;9.748;2024-01-10T09:10:04;-7.30;99.90
8888;DHT22;4480;52.370;9.748;2024-01-10T09:12:33;-7.30;99.90
8888;DHT22;4480;52.370;9.748;2024-01-10T09:15:00;-7.20;99.90
8888;DHT22;4480;52.370;9.748;2024-01-10T09:17:26;-7.20;99.90
8888;DHT22;4480;52.370;9.748;2024-01-10T09:19:53;-7.10;99.90
8888;DHT22;4480;52.370;9.748;2024-01-10T09:22:21;-7.00;99.90
8888;DHT22;4480;52.370;9.748;2024-01-10T09:24:48;-7.00;99.90
8888;DHT22;4480;52.370;9.748;2024-01-10T09:27:15;-6.90;99.90
8888;DHT22;4480;52.370;9.748;2024-01-10T09:29:42;-6.80;99.90
8888;DHT22;4480;52.370;9.748;2024-01-10T09:32:09;-6.80;99.90
8888;DHT22;4480;52.370;9.748;2024-01-10T09:34:36;-6.70;99.90
8888;DHT22;4480;52.370;9.748;2024-01-10T09:37:03;-6.70;99.90
8888;DHT22;4480;52.370;9.748;2024-01-10T09:39:32;-6.70;99.90
8888;DHT22;4480;52.370;9.748;2024-01-10T09:41:58;-6.60;99.90
8888;DHT22;4480;52.370;9.748;2024-01-10T09:44:24;-6.60;99.90
8888;DHT22;4480;52.370;9.748;2024-01-10T09:46:52;-6.60;99.90
8888;DHT22;4480;52.370;9.748;2024-01-10T09:49:20;-6.50;99.90
8888;DHT22;4480;52.370;9.748;2024-01-10T09:51:48;-6.50;99.90
8888;DHT22;4480;52.370;9.748;2024-01-10T09:54:16;-6.40;99.90
8888;DHT22;4480;52.370;9.748;2024-01-10T09:56:47;-6.30;99.90
8888;DHT22;4480;52.370;9.748;2024-01-10T09:59:14;-6.30;99.90
8888;DHT22;4480;52.370;9.748;2024-01-10T10:01:40;-6.20;99.90
8888;DHT22;4480;52.370;9.748;2024-01-10T10:04:11;-6.10;99.90
8888;DHT22;4480;52.370;9.748;2024-01-10T10:06:38;-6.10;99.90
8888;DHT22;4480;52.370;9.748;2024-01-10T10:09:06;-6.00;99.90
8888;DHT22;4480;52.370;9.748;2024-01-10T10:11:34;-6.00;99.90
8888;DHT22;4480;52.370;9.748;2024-01-10T10:14:15;-5.90;99.90
8888;DHT22;4480;52.370;9.748;2024-01-10T10:16:42;-5.80;99.90
8888;DHT22;4480;52.370;9.748;2024-01-10T10:19:10;-5.80;99.90
8888;DHT22;4480;52.370;9.748;2024-01-10T10:21:38;-5.80;99.90
8888;DHT22;4480;52.370;9.748;2024-01-10T10:24:05;-5.80;99.90
8888;DHT22;4480;52.370;9.748;2024-01-10T10:26:33;-5.80;99.90
8888;DHT22;4480;52.370;9.748;2024-01-10T10:29:00;-5.70;99.90
8888;DHT22;4480;52.370;9.748;2024-01-10T10:31:30;-5.70;99.90
8888;DHT22;4480;52.370;9.748;2024-01-10T10:33:59;-5.60;99.90
8888;DHT22;4480;52.370;9.748;2024-01-10T10:36:26;-5.50;99.90
8888;DHT22;4480;52.370;9.748;2024-01-10T10:38:53;-5.40;99.90
8888;DHT22;4480;52.370;9.748;2024-01-10T10:41:21;-5.30;99.90
8888;DHT22;4480;52.370;9.748;2024-01-10T10:43:49;-5.20;99.90
8888;DHT22;4480;52.370;9.748;2024-01-10T10:46:16;-5.20;99.90
8888;DHT22;4480;52.370;9.748;2024-01-10T10:48:45;-5.10;99.90
8888;DHT22;4480;52.370;9.748;2024-01-10T10:51:17;-5.10;99.90
8888;DHT22;4480;52.370;9.748;2024-01-10T10:53:45;-5.00;99.90
8888;DHT22;4480;52.370;9.748;2024-01-10T10:56:14;-4.90;99.90
8888;DHT22;4480;52.370;9.748;2024-01-10T10:58:42;-4.90;99.90
8888;DHT22;4480;52.370;9.748;2024-01-10T11:01:11;-4.80;99.90
8888;DHT22;4480;52.370;9.748;2024-01-10T11:03:39;-4.80;99.90
8888;DHT22;4480;52.370;9.748;2024-01-10T11:06:08;-4.70;99.90
8888;DHT22;4480;52.370;9.748;2024-01-10T11:08:39;-4.60;99.90
8888;DHT22;4480;52.370;9.748;2024-01-10T11:11:16;-4.60;99.90
8888;DHT22;4480;52.370;9.748;2024-01-10T11:13:58;-4.50;99.90
8888;DHT22;4480;52.370;9.748;2024-01-10T11:16:43;-4.50;99.90
8888;DHT22;4480;52.370;9.748;2024-01-10T11:22:36;-4.40;99.90
8888;DHT22;4480;52.370;9.748;2024-01-10T11:25:06;-4.30;99.90
8888;DHT22;4480;52.370;9.748;2024-01-10T11:27:33;-4.30;99.50
8888;DHT22;4480;52.370;9.748;2024-01-10T11:30:00;-4.20;99.30
8888;DHT22;4480;52.370;9.748;2024-01-10T11:32:30;-4.20;99.00
8888;DHT22;4480;52.370;9.748;2024-01-10T11:34:59;-4.20;98.40
8888;DHT22;4480;52.370;9.748;2024-01-10T11:37:39;-4.20;97.80
8888;DHT22;4480;52.370;9.748;2024-01-10T11:40:07;-4.20;97.40
8888;DHT22;4480;52.370;9.748;2024-01-10T11:42:41;-4.20;97.00
8888;DHT22;4480;52.370;9.748;2024-01-10T11:45:08;-4.20;96.70
8888;DHT22;4480;52.370;9.748;2024-01-10T11:47:38;-4.10;96.40
8888;DHT22;4480;52.370;9.748;2024-01-10T11:50:07;-4.10;96.00
8888;DHT22;4480;52.370;9.748;2024-01-10T11:52:37;-4.00;95.60
8888;DHT22;4480;52.370;9.748;2024-01-10T11:55:05;-4.00;95.10
8888;DHT22;4480;52.370;9.748;2024-01-10T11:57:32;-3.90;94.80
8888;DHT22;4480;52.370;9.748;2024-01-10T12:00:00;-3.80;94.70
8888;DHT22;4480;52.370;9.748;2024-01-10T12:02:29;-3.70;94.40
8888;DHT22;4480;52.370;9.748;2024-01-10T12:04:56;-3.70;94.10
8888;DHT22;4480;52.370;9.748;2024-01-10T12:07:23;-3.60;93.80
8888;DHT22;4480;52.370;9.748;2024-01-10T12:09:52;-3.50;93.50
8888;DHT22;4480;52.370;9.748;2024-01-10T12:12:20;-3.50;93.10
8888;DHT22;4480;52.370;9.748;2024-01-10T12:14:46;-3.50;92.60
8888;DHT22;4480;52.370;9.748;2024-01-10T12:17:13;-3.40;92.40
8888;DHT22;4480;52.370;9.748;2024-01-10T12:19:40;-3.40;92.00
8888;DHT22;4480;52.370;9.748;2024-01-10T12:22:10;-3.40;91.40
8888;DHT22;4480;52.370;9.748;2024-01-10T12:24:42;-3.40;91.00
8888;DHT22;4480;52.370;9.748;2024-01-10T12:27:12;-3.30;90.70
8888;DHT22;4480;52.370;9.748;2024-01-10T12:29:38;-3.30;90.40
8888;DHT22;4480;52.370;9.748;2024-01-10T12:32:07;-3.20;90.30
8888;DHT22;4480;52.370;9.748;2024-01-10T12:34:38;-3.20;90.10
8888;DHT22;4480;52.370;9.748;2024-01-10T12:37:04;-3.10;89.60
8888;DHT22;4480;52.370;9.748;2024-01-10T12:39:32;-3.10;88.70
8888;DHT22;4480;52.370;9.748;2024-01-10T12:41:58;-3.10;88.30
8888;DHT22;4480;52.370;9.748;2024-01-10T12:44:29;-3.10;87.80
8888;DHT22;4480;52.370;9.748;2024-01-10T12:46:56;-3.10;87.70
8888;DHT22;4480;52.370;9.748;2024-01-10T12:49:23;-3.10;87.60
8888;DHT22;4480;52.370;9.748;2024-01-10T12:51:50;-3.10;87.00
8888;DHT22;4480;52.370;9.748;2024-01-10T12:54:17;-3.10;85.80
8888;DHT22;4480;52.370;9.748;2024-01-10T12:56:44;-3.10;85.80
8888;DHT22;4480;52.370;9.748;2024-01-10T12:59:11;-3.10;85.60
8888;DHT22;4480;52.370;9.748;2024-01-10T13:01:39;-3.10;85.40
8888;DHT22;4480;52.370;9.748;2024-01-10T13:04:07;-3.10;85.40
8888;DHT22;4480;52.370;9.748;2024-01-10T13:06:34;-3.00;85.50
8888;DHT22;4480;52.370;9.748;2024-01-10T13:09:00;-3.00;85.20
8888;DHT22;4480;52.370;9.748;2024-01-10T13:11:27;-3.00;84.40
8888;DHT22;4480;52.370;9.748;2024-01-10T13:13:55;-3.00;84.10
8888;DHT22;4480;52.370;9.748;2024-01-10T13:16:22;-3.00;83.50
8888;DHT22;4480;52.370;9.748;2024-01-10T13:18:51;-3.00;83.40
8888;DHT22;4480;52.370;9.748;2024-01-10T13:21:18;-2.90;83.50
8888;DHT22;4480;52.370;9.748;2024-01-10T13:23:45;-2.90;83.10
8888;DHT22;4480;52.370;9.748;2024-01-10T13:26:12;-2.90;82.80
8888;DHT22;4480;52.370;9.748;2024-01-10T13:28:39;-2.90;81.70
8888;DHT22;4480;52.370;9.748;2024-01-10T13:31:06;-2.90;81.20
8888;DHT22;4480;52.370;9.748;2024-01-10T13:33:33;-2.80;80.90
8888;DHT22;4480;52.370;9.748;2024-01-10T13:36:01;-2.80;80.20
8888;DHT22;4480;52.370;9.748;2024-01-10T13:38:28;-2.80;80.30
8888;DHT22;4480;52.370;9.748;2024-01-10T13:40:54;-2.70;80.50
8888;DHT22;4480;52.370;9.748;2024-01-10T13:43:21;-2.70;79.90
8888;DHT22;4480;52.370;9.748;2024-01-10T13:45:48;-2.60;79.70
8888;DHT22;4480;52.370;9.748;2024-01-10T13:48:15;-2.50;79.30
8888;DHT22;4480;52.370;9.748;2024-01-10T13:50:42;-2.50;78.90
8888;DHT22;4480;52.370;9.748;2024-01-10T13:53:10;-2.50;78.20
8888;DHT22;4480;52.370;9.748;2024-01-10T13:55:38;-2.50;76.90
8888;DHT22;4480;52.370;9.748;2024-01-10T13:58:05;-2.50;76.70
8888;DHT22;4480;52.370;9.748;2024-01-10T14:00:33;-2.60;76.60
8888;DHT22;4480;52.370;9.748;2024-01-10T14:03:00;-2.60;76.20
8888;DHT22;4480;52.370;9.748;2024-01-10T14:05:27;-2.60;75.80
8888;DHT22;4480;52.370;9.748;2024-01-10T14:07:54;-2.70;75.30
8888;DHT22;4480;52.370;9.748;2024-01-10T14:10:22;-2.70;75.30
8888;DHT22;4480;52.370;9.748;2024-01-10T14:12:49;-2.70;75.20
8888;DHT22;4480;52.370;9.748;2024-01-10T14:15:16;-2.70;75.40
8888;DHT22;4480;52.370;9.748;2024-01-10T14:17:43;-2.70;75.70
8888;DHT22;4480;52.370;9.748;2024-01-10T14:20:10;-2.70;76.10
8888;DHT22;4480;52.370;9.748;2024-01-10T14:22:39;-2.70;76.30
8888;DHT22;4480;52.370;9.748;2024-01-10T14:25:07;-2.70;76.50
8888;DHT22;4480;52.370;9.748;2024-01-10T14:27:36;-2.70;77.10
8888;DHT22;4480;52.370;9.748;2024-01-10T14:30:05;-2.80;77.20
8888;DHT22;4480;52.370;9.748;2024-01-10T14:32:34;-2.80;77.40
8888;DHT22;4480;52.370;9.748;2024-01-10T14:35:01;-2.80;77.90
8888;DHT22;4480;52.370;9.748;2024-01-10T14:37:27;-2.80;78.30
8888;DHT22;4480;52.370;9.748;2024-01-10T14:39:54;-2.80;78.60
8888;DHT22;4480;52.370;9.748;2024-01-10T14:42:21;-2.80;78.70
8888;DHT22;4480;52.370;9.748;2024-01-10T14:44:49;-2.80;78.90
8888;DHT22;4480;52.370;9.748;2024-01-10T14:47:16;-2.80;79.10
8888;DHT22;4480;52.370;9.748;2024-01-10T14:49:43;-2.80;79.20
8888;DHT22;4480;52.370;9.748;2024-01-10T14:52:09;-2.90;79.20
8888;DHT22;4480;52.370;9.748;2024-01-10T14:54:36;-2.90;79.50
8888;DHT22;4480;52.370;9.748;2024-01-10T14:57:03;-2.90;79.90
8888;DHT22;4480;52.370;9.748;2024-01-10T14:59:30;-2.90;79.70
8888;DHT22;4480;52.370;9.748;2024-01-10T15:01:58;-3.00;79.40
8888;DHT22;4480;52.370;9.748;2024-01-10T15:04:25;-3.00;79.30
8888;DHT22;4480;52.370;9.748;2024-01-10T15:06:53;-3.00;79.10
8888;DHT22;4480;52.370;9.748;2024-01-10T15:09:19;-3.00;78.90
8888;DHT22;4480;52.370;9.748;2024-01-10T15:11:46;-3.00;78.50
8888;DHT22;4480;52.370;9.748;2024-01-10T15:14:13;-3.10;78.20
8888;DHT22;4480;52.370;9.748;2024-01-10T15:16:40;-3.10;78.10
8888;DHT22;4480;52.370;9.748;2024-01-10T15:19:08;-3.10;78.20
8888;DHT22;4480;52.370;9.748;2024-01-10T15:21:35;-3.20;78.20
8888;DHT22;4480;52.370;9.748;2024-01-10T15:24:01;-3.20;78.30
8888;DHT22;4480;52.370;9.748;2024-01-10T15:26:29;-3.20;78.60
8888;DHT22;4480;52.370;9.748;2024-01-10T15:28:56;-3.30;78.80
8888;DHT22;4480;52.370;9.748;2024-01-10T15:31:24;-3.30;78.80
8888;DHT22;4480;52.370;9.748;2024-01-10T15:33:54;-3.40;79.20
8888;DHT22;4480;52.370;9.748;2024-01-10T15:36:22;-3.40;79.70
8888;DHT22;4480;52.370;9.748;2024-01-10T15:38:50;-3.40;80.20
8888;DHT22;4480;52.370;9.748;2024-01-10T15:41:16;-3.50;80.50
8888;DHT22;4480;52.370;9.748;2024-01-10T15:43:43;-3.50;81.00
8888;DHT22;4480;52.370;9.748;2024-01-10T15:46:17;-3.50;81.40
8888;DHT22;4480;52.370;9.748;2024-01-10T15:48:45;-3.60;81.60
8888;DHT22;4480;52.370;9.748;2024-01-10T15:51:12;-3.60;82.10
8888;DHT22;4480;52.370;9.748;2024-01-10T15:53:40;-3.60;82.20
8888;DHT22;4480;52.370;9.748;2024-01-10T15:56:09;-3.70;82.40
8888;DHT22;4480;52.370;9.748;2024-01-10T15:58:36;-3.70;83.00
8888;DHT22;4480;52.370;9.748;2024-01-10T16:01:04;-3.70;83.40
8888;DHT22;4480;52.370;9.748;2024-01-10T16:03:31;-3.70;83.40
8888;DHT22;4480;52.370;9.748;2024-01-10T16:05:57;-3.70;84.20
8888;DHT22;4480;52.370;9.748;2024-01-10T16:08:24;-3.70;83.90
8888;DHT22;4480;52.370;9.748;2024-01-10T16:10:52;-3.70;84.10